Latest Weather Observations for Scherger

IDQ60801

Issued at 9:02 am EST Monday 6 July 2015 (issued every 30 minutes, with the page automatically refreshed every 10 minutes)

About weather observations | Map of weather stations | Latest weather observations for QLD | Other Formats
Station Details ID: 027075 Name: SCHERGER RAAF Lat: -12.62 Lon: 142.09 Height: 39.34 m
Data from the previous 72 hours. | See also: Recent months at Scherger
Date/Time
EST
Temp
°C
App
Temp
°C
Dew
Point
Rel
Hum
%
Delta-T
°C
Wind Press
QNH
hPa
Press
MSL
hPa
Rain
since 9 am
mm
Dir
 
Spd
km/h
Gust
km/h
Spd
kts
Gust
kts
06/09:00am 25.1 25.0 17.8 64 4.6 E 15 30 8 16 1016.0 1015.8 0.0
06/08:30am 23.4 23.4 18.1 72 3.3 ESE 15 24 8 13 1015.7 1015.5 0.0
06/08:00am 21.1 22.3 18.3 84 1.7 ESE 9 17 5 9 1015.5 1015.3 0.0
06/07:00am 17.7 18.8 16.7 94 0.6 ESE 6 9 3 5 1014.9 1014.7 0.0
06/06:30am 16.4 17.3 15.1 92 0.8 SE 4 7 2 4 1014.7 1014.5 0.0
06/06:00am 16.1 17.5 14.5 90 0.9 CALM 0 0 0 0 1014.7 1014.5 0.0
06/05:30am 16.5 18.1 14.9 90 0.9 CALM 0 0 0 0 1014.7 1014.5 0.0
06/05:00am 16.9 18.6 15.1 89 1.0 CALM 0 0 0 0 1014.5 1014.3 0.0
06/04:30am 17.1 18.7 14.9 87 1.3 CALM 0 0 0 0 1014.4 1014.2 0.0
06/04:00am 17.3 18.9 14.9 86 1.4 CALM 0 0 0 0 1014.4 1014.2 0.0
06/03:30am 17.6 19.2 15.0 85 1.5 CALM 0 0 0 0 1014.3 1014.1 0.0
06/03:00am 17.8 19.3 14.7 82 1.8 CALM 0 0 0 0 1014.5 1014.3 0.0
06/02:30am 18.4 19.9 14.7 79 2.1 CALM 0 6 0 3 1014.5 1014.3 0.0
06/02:00am 19.2 20.6 14.5 74 2.7 CALM 0 0 0 0 1014.7 1014.5 0.0
06/01:30am 20.2 20.8 15.2 73 3.0 E 6 9 3 5 1015.0 1014.8 0.0
06/01:00am 20.9 21.3 15.2 70 3.4 ESE 7 11 4 6 1015.2 1015.0 0.0
06/12:30am 21.4 21.3 15.0 67 3.8 E 9 15 5 8 1015.3 1015.1 0.0
06/12:00am 21.7 21.2 13.9 61 4.5 ESE 9 15 5 8 1015.4 1015.2 0.0
 
Date/Time
EST
Temp
°C
App
Temp
°C
Dew
Point
Rel
Hum
%
Delta-T
°C
Wind Press
QNH
hPa
Press
MSL
hPa
Rain
since 9 am
mm
Dir
 
Spd
km/h
Gust
km/h
Spd
kts
Gust
kts
05/11:30pm 22.0 21.4 13.4 58 5.0 ESE 9 13 5 7 1015.3 1015.1 0.0
05/11:00pm 22.1 21.9 13.5 58 5.0 SE 7 13 4 7 1015.2 1015.0 0.0
05/10:30pm 22.6 21.9 14.4 60 4.8 SE 11 19 6 10 1015.2 1015.0 0.0
05/10:00pm 22.9 22.8 15.0 61 4.7 SE 9 17 5 9 1015.1 1014.9 0.0
05/09:30pm 23.4 23.2 15.7 62 4.6 ESE 11 17 6 9 1014.7 1014.5 0.0
05/09:00pm 23.8 23.6 15.6 60 4.9 SE 11 15 6 8 1014.6 1014.4 0.0
05/08:30pm 24.6 24.1 15.0 55 5.8 ESE 11 19 6 10 1014.4 1014.2 0.0
05/08:00pm 25.4 25.0 14.2 50 6.6 ESE 9 19 5 10 1014.0 1013.8 0.0
05/07:30pm 25.5 25.4 14.9 52 6.4 SE 9 17 5 9 1013.5 1013.3 0.0
05/07:00pm 24.5 24.7 14.3 53 6.0 SE 6 9 3 5 1013.1 1012.9 0.0
05/06:30pm 25.6 26.5 14.1 49 6.8 SE 2 7 1 4 1012.7 1012.5 0.0
05/06:00pm 27.5 27.4 13.4 41 8.3 SE 6 11 3 6 1012.4 1012.2 0.0
05/05:30pm 29.1 28.7 12.9 37 9.6 ESE 7 11 4 6 1012.1 1011.9 0.0
05/05:00pm 30.5 29.8 13.3 35 10.3 ESE 9 15 5 8 1011.9 1011.7 0.0
05/04:30pm 30.6 29.1 12.0 32 10.9 ESE 11 17 6 9 1012.0 1011.8 0.0
05/04:00pm 30.9 29.3 12.8 33 10.8 SE 13 20 7 11 1012.1 1011.9 0.0
05/03:30pm 31.4 29.6 12.2 30 11.3 SE 13 22 7 12 1012.0 1011.8 0.0
05/03:00pm 31.0 29.7 12.4 32 11.0 ESE 11 19 6 10 1012.3 1012.1 0.0
05/02:30pm 31.7 30.7 13.5 33 11.0 ESE 11 17 6 9 1012.6 1012.4 0.0
05/02:00pm 30.5 28.7 13.3 35 10.3 SE 15 30 8 16 1012.9 1012.7 0.0
05/01:30pm 32.1 30.7 13.3 31 11.3 SE 13 20 7 11 1013.3 1013.1 0.0
05/01:00pm 31.6 30.0 12.9 32 11.2 E 13 20 7 11 1013.7 1013.5 0.0
05/12:30pm 31.0 29.2 13.3 34 10.6 ESE 15 24 8 13 1014.1 1013.9 0.0
05/12:00pm 30.2 28.1 13.5 36 10.0 ESE 17 26 9 14 1014.6 1014.4 0.0
05/11:30am 29.8 27.7 13.5 36 9.7 ESE 17 26 9 14 1015.0 1014.8 0.0
05/11:00am 29.2 28.6 15.7 44 8.3 E 13 24 7 13 1015.3 1015.1 0.0
05/10:30am 27.9 27.2 16.5 50 7.1 ESE 15 24 8 13 1015.5 1015.3 0.0
05/10:00am 26.8 27.2 18.1 59 5.5 ESE 13 22 7 12 1015.7 1015.5 0.0
05/09:30am 25.4 25.1 17.3 61 5.1 SE 15 24 8 13 1015.7 1015.5 0.0
05/09:00am 24.6 25.5 18.3 68 4.0 SE 11 17 6 9 1015.6 1015.4 0.0
05/08:30am 23.0 24.3 18.5 76 2.8 SSE 9 15 5 8 1015.4 1015.2 0.0
05/08:00am 21.9 23.3 18.7 82 2.0 S 9 13 5 7 1015.3 1015.1 0.0
05/07:30am 20.9 23.9 18.5 86 1.5 CALM 0 0 0 0 1015.1 1014.9 0.0
05/07:00am 20.6 23.5 18.2 86 1.5 CALM 0 0 0 0 1014.8 1014.6 0.0
05/06:30am 20.7 23.6 18.1 85 1.6 CALM 0 0 0 0 1014.5 1014.3 0.0
05/06:00am 20.8 23.6 18.0 84 1.7 CALM 0 0 0 0 1014.3 1014.1 0.0
05/05:30am 21.0 23.8 18.0 83 1.9 CALM 0 0 0 0 1014.1 1013.9 0.0
05/05:00am 21.1 23.9 17.9 82 2.0 CALM 0 0 0 0 1014.0 1013.8 0.0
05/04:30am 21.4 24.1 17.8 80 2.2 CALM 0 6 0 3 1013.8 1013.6 0.0
05/04:00am 21.5 23.1 17.9 80 2.2 SE 6 9 3 5 1013.4 1013.2 0.0
05/03:30am 21.7 23.1 17.9 79 2.4 SSE 7 11 4 6 1013.4 1013.2 0.0
05/03:00am 21.9 23.0 18.1 79 2.4 ESE 9 15 5 8 1013.5 1013.3 0.0
05/02:30am 22.0 23.6 18.2 79 2.4 ESE 7 15 4 8 1013.7 1013.5 0.0
05/02:00am 21.9 23.4 18.1 79 2.4 ESE 7 11 4 6 1014.0 1013.8 0.0
05/01:30am 21.8 23.3 18.0 79 2.4 ESE 7 15 4 8 1014.2 1014.0 0.0
05/01:00am 21.7 22.6 17.5 77 2.6 ESE 9 15 5 8 1014.4 1014.2 0.0
05/12:30am 22.3 23.4 17.9 76 2.7 ESE 9 15 5 8 1014.5 1014.3 0.0
05/12:00am 22.3 23.4 17.9 76 2.7 E 9 15 5 8 1014.5 1014.3 0.0
 
Date/Time
EST
Temp
°C
App
Temp
°C
Dew
Point
Rel
Hum
%
Delta-T
°C
Wind Press
QNH
hPa
Press
MSL
hPa
Rain
since 9 am
mm
Dir
 
Spd
km/h
Gust
km/h
Spd
kts
Gust
kts
04/11:30pm 22.0 22.8 17.4 75 2.8 ESE 9 13 5 7 1014.5 1014.3 0.0
04/11:00pm 22.0 23.1 17.2 74 3.0 ESE 7 13 4 7 1014.8 1014.6 0.0
04/10:30pm 21.8 22.9 16.5 72 3.2 E 6 11 3 6 1014.9 1014.7 0.0
04/10:00pm 21.8 22.2 16.3 71 3.3 ESE 9 13 5 7 1014.9 1014.7 0.0
04/09:30pm 22.0 22.3 16.1 69 3.6 ESE 9 15 5 8 1014.8 1014.6 0.0
04/09:00pm 22.4 22.2 15.7 66 4.0 E 11 17 6 9 1014.7 1014.5 0.0
04/08:30pm 22.9 22.6 15.5 63 4.4 E 11 20 6 11 1014.4 1014.2 0.0
04/08:00pm 22.2 22.9 15.5 66 4.0 ESE 6 11 3 6 1014.1 1013.9 0.0
04/07:30pm 22.4 23.1 15.5 65 4.1 E 6 9 3 5 1013.9 1013.7 0.0
04/07:00pm 23.4 25.2 15.5 61 4.8 CALM 0 6 0 3 1013.6 1013.4 0.0
04/06:30pm 24.1 24.6 15.6 59 5.1 E 7 9 4 5 1013.3 1013.1 0.0
04/06:00pm 24.7 25.7 16.4 60 5.1 E 6 11 3 6 1012.8 1012.6 0.0
04/05:30pm 25.8 26.3 16.6 56 5.7 E 9 17 5 9 1012.5 1012.3 0.0
04/05:00pm 26.3 27.0 17.1 57 5.7 ENE 9 13 5 7 1012.2 1012.0 0.0
04/04:30pm 26.7 27.5 17.2 56 5.9 ENE 9 20 5 11 1011.9 1011.7 0.0
04/04:00pm 27.1 27.1 17.3 55 6.2 ENE 13 22 7 12 1011.9 1011.7 0.0
04/03:30pm 27.1 27.7 17.8 56 5.9 ESE 11 17 6 9 1011.7 1011.5 0.0
04/03:00pm 27.1 27.7 17.6 56 6.0 ESE 11 15 6 8 1011.8 1011.6 0.0
04/02:30pm 26.9 27.1 17.7 57 5.8 E 13 22 7 12 1012.1 1011.9 0.0
04/02:00pm 28.1 28.3 17.6 53 6.6 E 13 22 7 12 1012.4 1012.2 0.0
04/01:30pm 27.3 27.4 17.5 55 6.2 ESE 13 24 7 13 1012.7 1012.5 0.0
04/01:00pm 29.6 30.4 18.1 50 7.4 E 11 22 6 12 1013.0 1012.8 0.0
04/12:30pm 28.0 29.0 17.8 54 6.5 E 9 17 5 9 1013.5 1013.3 0.0
04/12:00pm 27.6 27.8 17.7 54 6.3 E 13 19 7 10 1014.0 1013.8 0.0
04/11:30am 27.5 27.3 17.7 55 6.2 ESE 15 22 8 12 1014.5 1014.3 0.0
04/11:00am 26.3 26.6 17.9 60 5.3 SE 13 17 7 9 1015.0 1014.8 0.0
04/10:30am 25.3 26.4 18.0 64 4.6 ESE 9 15 5 8 1015.3 1015.1 0.0
04/10:00am 24.0 24.8 17.3 66 4.2 ESE 9 17 5 9 1015.6 1015.4 0.0
04/09:30am 22.9 25.2 17.8 73 3.2 SSE 2 7 1 4 1015.8 1015.6 0.0
04/09:00am 21.5 23.6 17.1 76 2.7 SSE 2 7 1 4 1015.8 1015.6 0.0
04/08:30am 20.4 22.6 16.6 79 2.3 CALM 0 0 0 0 1015.7 1015.5 0.0
04/08:00am 19.8 20.8 16.3 80 2.1 S 6 9 3 5 1015.4 1015.2 0.0
04/07:30am 20.1 20.5 16.3 79 2.3 SSE 9 13 5 7 1014.9 1014.7 0.0
04/07:00am 20.3 20.3 16.3 78 2.4 SSE 11 17 6 9 1014.6 1014.4 0.0
04/06:30am 21.5 21.7 16.7 74 2.9 ESE 11 20 6 11 1014.3 1014.1 0.0
04/06:00am 20.9 21.0 16.5 76 2.7 ESE 11 20 6 11 1014.0 1013.8 0.0
04/05:30am 20.7 20.7 16.3 76 2.7 ESE 11 17 6 9 1014.1 1013.9 0.0
04/05:00am 21.0 21.4 16.4 75 2.8 ESE 9 19 5 10 1014.1 1013.9 0.0
04/04:30am 21.0 21.1 16.4 75 2.8 SE 11 19 6 10 1013.9 1013.7 0.0
04/04:00am 20.9 21.1 16.7 77 2.6 ESE 11 19 6 10 1013.9 1013.7 0.0
04/03:30am 19.7 20.5 16.3 81 2.0 ESE 7 15 4 8 1014.1 1013.9 0.0
04/03:00am 19.3 20.7 16.5 84 1.7 ESE 4 11 2 6 1014.3 1014.1 0.0
04/02:30am 18.8 19.3 15.5 81 1.9 SSE 7 11 4 6 1014.4 1014.2 0.0
04/02:00am 19.7 20.4 16.0 79 2.2 ESE 7 11 4 6 1014.6 1014.4 0.0
04/01:30am 20.2 20.6 16.2 78 2.4 ESE 9 13 5 7 1014.9 1014.7 0.0
04/01:00am 20.5 20.8 16.1 76 2.6 E 9 15 5 8 1015.0 1014.8 0.0
04/12:30am 20.7 21.0 15.9 74 2.9 E 9 13 5 7 1015.1 1014.9 0.0
04/12:00am 21.0 20.9 16.0 73 3.0 E 11 17 6 9 1015.2 1015.0 0.0
 
Date/Time
EST
Temp
°C
App
Temp
°C
Dew
Point
Rel
Hum
%
Delta-T
°C
Wind Press
QNH
hPa
Press
MSL
hPa
Rain
since 9 am
mm
Dir
 
Spd
km/h
Gust
km/h
Spd
kts
Gust
kts
03/11:30pm 20.9 21.2 15.9 73 3.0 E 9 15 5 8 1015.4 1015.2 0.0
03/11:00pm 21.0 21.5 15.5 71 3.3 ESE 7 13 4 7 1015.6 1015.4 0.0
03/10:30pm 21.4 21.0 15.3 68 3.6 E 11 20 6 11 1015.5 1015.3 0.0
03/10:00pm 21.8 21.0 15.2 66 3.9 E 13 20 7 11 1015.4 1015.2 0.0
03/09:30pm 22.1 21.3 15.0 64 4.2 E 13 20 7 11 1015.3 1015.1 0.0
03/09:00pm 22.5 22.0 14.9 62 4.5 E 11 20 6 11 1015.0 1014.8 0.0
03/08:30pm 23.3 22.3 14.6 58 5.2 E 13 20 7 11 1014.5 1014.3 0.0
03/08:00pm 23.4 22.6 13.0 52 6.0 E 9 15 5 8 1014.3 1014.1 0.0
03/07:30pm 23.7 22.9 13.0 51 6.2 ESE 9 13 5 7 1013.9 1013.7 0.0
03/07:00pm 24.3 23.9 12.9 49 6.6 ESE 7 9 4 5 1013.5 1013.3 0.0
03/06:30pm 25.1 24.7 13.0 47 7.0 ESE 7 15 4 8 1013.2 1013.0 0.0
03/06:00pm 26.1 25.3 12.9 44 7.7 ESE 9 13 5 7 1012.8 1012.6 0.0
03/05:30pm 27.5 27.0 12.7 40 8.7 ESE 7 11 4 6 1012.5 1012.3 0.0
03/05:00pm 29.0 27.7 12.4 36 9.7 ESE 11 20 6 11 1012.1 1011.9 0.0
03/04:30pm 27.5 26.6 12.7 40 8.7 SE 9 15 5 8 1011.8 1011.6 0.0
03/04:00pm 29.9 29.6 13.2 36 9.9 ESE 7 15 4 8 1011.6 1011.4 0.0
03/03:30pm 29.8 28.2 12.7 35 10.1 ESE 13 22 7 12 1011.8 1011.6 0.0
03/03:00pm 30.4 30.0 14.1 37 9.9 SE 9 13 5 7 1011.9 1011.7 0.0
03/02:30pm 29.1 26.9 13.3 37 9.4 SSE 17 22 9 12 1012.4 1012.2 0.0
03/02:00pm 29.8 28.6 14.0 38 9.5 ESE 13 24 7 13 1012.9 1012.7 0.0
03/01:30pm 30.2 28.3 14.3 38 9.6 SE 17 26 9 14 1013.1 1012.9 0.0
03/01:00pm 30.1 29.4 15.4 41 9.1 E 13 20 7 11 1013.7 1013.5 0.0
03/12:30pm 28.4 27.4 15.7 46 7.8 ESE 15 24 8 13 1014.3 1014.1 0.0
03/12:00pm 28.9 27.7 16.1 46 7.9 E 17 26 9 14 1014.9 1014.7 0.0
03/11:30am 27.3 26.7 16.6 52 6.6 ESE 15 24 8 13 1015.5 1015.3 0.0
03/11:00am 27.3 26.8 16.9 53 6.5 ESE 15 24 8 13 1015.9 1015.7 0.0
03/10:30am 26.3 26.6 17.1 57 5.7 E 11 20 6 11 1016.2 1016.0 0.0
03/10:00am 25.5 25.6 17.4 61 5.1 ESE 13 20 7 11 1016.4 1016.2 0.0
03/09:30am 24.7 25.5 18.2 67 4.1 ESE 11 17 6 9 1016.5 1016.3 0.0

Other Formats:

Comma delimited format used in spreadsheet applications
http://www.bom.gov.au/fwo/IDQ60801/IDQ60801.94171.axf

JavaScript Object Notation format (JSON) in row-major order
http://www.bom.gov.au/fwo/IDQ60801/IDQ60801.94171.json